Hlavní strana
METAR-TAF:

METAR-TAF

Letiště :

Rimini, Itálie

zeměpisná šířka: 44-02N, zeměpisná délka: 012-37E, výška: 12 m

Aktuální stav počasí

Zpráva byla vytvořena před 24 minutami, v 04:15 UTC
Západoseverozápadní vítr 6 kt
Teplota 6°C
Vlhkost vzduchu 93%
Tlak 1017 hPa
Viditelnost: 2000 m
Polojasno ve výšce 800 ft
Oblačno až skoro zataženo ve výšce 2000 ft
slabý déšť, kouřmo

METAR: LIPR 180415Z 30006KT 2000 -RA BR SCT008 BKN020 06/05 Q1017

Čas: 05:39 (04:39 UTC)

Předpověď počasí

Zpráva byla vytvořena před 2 hodinami a 39 minutami, v 02:00 UTC
Předpověď platná od 18 v 03 UTC do 18 v 12 UTC
Západoseverozápadní vítr 6 kt
Viditelnost: 2500 m
Polojasno ve výšce 2000 ft
Oblačno až skoro zataženo ve výšce 3000 ft
déšť, kouřmo

TAF: LIPR 180200Z 1803/1812 30006KT 2500 RA BR SCT020 BKN030

Stav a předpovědi počasí z více než 4 000 letišť (zprávy METAR a TAF).

Červené a žluté tečky na mapě představují dostupné meteorologické stanice.

Když kurzor umístíte na tečku, zobrazí se název stanice.

Pak kliknutím zobrazíte stav a předpověď počasí.

Chcete-li změnit mapu, kliknutím na zelené tlačítko se znaménkem +mapu přiblížíte, kliknutím na zelené tlačítko se znaménkem – mapu oddálíte a kliknutím na zelené šipky přejdete na sousední mapy.


METAR-TAF: